Data for 09/27/2017

Time Sea-Level Adjusted Pressure Absolute Pressure Temperature Relative Humidity Dew Point   
(mb) (inHg) (mb) (inHg) (C) (F) (%) (C) (F)
00:05 1026 30.3 855 25.25 7.2 45 64 0.9 33.6
00:10 1026 30.3 855 25.25 7.1 44.8 65 0.9 33.6
00:15 1026 30.3 855 25.25 7 44.6 65 0.9 33.5
00:20 1026 30.3 855 25.25 6.9 44.4 65 0.9 33.5
00:25 1026 30.3 855 25.25 6.7 44.1 66 0.8 33.5
00:30 1026 30.3 855 25.25 6.7 44.1 66 0.8 33.5
00:35 1026 30.3 855 25.25 6.8 44.2 65 0.7 33.2
00:40 1026 30.3 855 25.25 6.8 44.2 66 0.9 33.6
00:45 1026 30.3 855 25.25 6.5 43.8 66 0.7 33.2
00:50 1026 30.3 855 25.25 6.7 44.1 65 0.6 33.1
00:55 1026 30.3 855 25.25 6.6 43.8 66 0.8 33.4
01:00 1026 30.3 855 25.25 6.3 43.3 68 0.8 33.4
01:05 1026 30.3 855 25.25 6.1 42.9 68 0.6 33.1
01:10 1026 30.3 855 25.25 6 42.9 69 0.7 33.3
01:15 1026 30.3 855 25.25 5.6 42.1 71 0.8 33.4
01:20 1026 30.3 855 25.25 5.4 41.8 71 0.5 33
01:25 1026 30.3 855 25.25 5.7 42.2 70 0.6 33.1
01:30 1026 30.3 855 25.25 5.9 42.5 69 0.5 33
01:35 1026 30.3 855 25.25 6 42.8 68 0.5 32.9
01:40 1026 30.3 855 25.25 6.4 43.6 66 0.5 32.9
01:45 1026 30.3 855 25.25 6.5 43.6 66 0.6 33
01:50 1026 30.3 855 25.25 6.4 43.5 66 0.5 32.9
01:55 1026 30.3 855 25.25 6.2 43.1 67 0.6 33.1
02:00 1026 30.3 855 25.25 5.8 42.4 69 0.6 33.1
02:05 1026 30.3 855 25.25 5.4 41.8 70 0.4 32.7
02:10 1026 30.3 855 25.25 5.2 41.4 71 0.5 32.8
02:15 1026 30.3 855 25.25 5 41 72 0.3 32.6
02:20 1026 30.3 855 25.25 5.2 41.3 70 0.2 32.3
02:25 1026 30.3 855 25.25 5.4 41.8 70 0.5 32.8
02:30 1026 30.3 855 25.25 5.4 41.8 71 0.5 32.9
02:35 1026 30.3 855 25.25 5.2 41.3 70 0.2 32.3
02:40 1026 30.3 855 25.25 5.4 41.8 70 0.5 32.8
02:45 1026 30.3 855 25.25 5.4 41.8 70 0.4 32.8
02:50 1026 30.3 855 25.25 5.5 41.9 70 0.4 32.7
02:55 1026 30.3 855 25.25 5.4 41.8 70 0.4 32.7
03:00 1026 30.3 855 25.25 5.4 41.7 70 0.4 32.7
03:05 1026 30.3 855 25.25 5.2 41.4 71 0.3 32.6
03:10 1026 30.3 856 25.28 5.3 41.5 70 0.3 32.5
03:15 1026 30.3 856 25.28 5.5 41.8 70 0.5 32.9
03:20 1026 30.3 856 25.28 5.2 41.4 71 0.3 32.6
03:25 1026 30.3 856 25.28 5.3 41.6 70 0.3 32.6
03:30 1027 30.33 856 25.28 5.4 41.7 70 0.3 32.6
03:35 1027 30.33 856 25.28 5.4 41.8 70 0.4 32.8
03:40 1027 30.33 856 25.28 5.3 41.6 70 0.4 32.7
03:45 1027 30.33 856 25.28 5.3 41.6 71 0.4 32.7
03:50 1027 30.33 856 25.28 5.2 41.4 70 0.2 32.3
03:55 1027 30.33 856 25.28 5.3 41.6 69 0.2 32.3
04:00 1027 30.33 856 25.28 5.1 41.1 71 0.3 32.6
04:05 1027 30.33 856 25.28 5 41 71 0.2 32.3
04:10 1027 30.33 856 25.28 5.2 41.4 70 0.3 32.5
04:15 1027 30.33 856 25.28 5.7 42.3 68 0.3 32.5
04:20 1027 30.33 856 25.28 5.4 41.7 70 0.4 32.7
04:25 1027 30.33 856 25.28 4.9 40.8 72 0.3 32.6
04:30 1027 30.33 856 25.28 4.9 40.9 72 0.2 32.4
04:35 1027 30.33 856 25.28 5.2 41.4 70 0.3 32.5
04:40 1027 30.33 856 25.28 5.2 41.3 71 0.3 32.6
04:45 1027 30.33 856 25.28 4.9 40.8 73 0.3 32.6
04:50 1027 30.33 856 25.28 4.8 40.7 72 0.1 32.3
04:55 1027 30.33 856 25.28 4.9 40.9 71 0.1 32.3
05:00 1027 30.33 856 25.28 4.9 40.8 72 0.3 32.6
05:05 1027 30.33 856 25.28 4.9 40.8 72 0.3 32.5
05:10 1027 30.33 856 25.28 4.9 40.8 72 0.2 32.4
05:15 1027 30.33 856 25.28 5 41 72 0.3 32.5
05:20 1027 30.33 856 25.28 4.9 40.7 72 0.3 32.5
05:25 1027 30.33 856 25.28 4.2 39.6 75 0.2 32.3
05:30 1027 30.33 856 25.28 3.9 39 75 -0.1 31.9
05:35 1027 30.33 856 25.28 3.8 38.9 76 0 32
05:40 1027 30.33 856 25.28 3.6 38.5 77 0 32
05:45 1027 30.33 856 25.28 3.5 38.3 77 -0.2 31.7
05:50 1027 30.33 856 25.28 3.7 38.6 76 -0.2 31.6
05:55 1027 30.33 856 25.28 4.4 40 73 0.1 32.2
06:00 1027 30.33 856 25.28 4.4 40 73 0.1 32.1
06:05 1027 30.33 856 25.28 4.3 39.8 74 0.1 32.2
06:10 1027 30.33 856 25.28 4.2 39.6 75 0.1 32.2
06:15 1027 30.33 856 25.28 4.2 39.5 75 0.1 32.2
06:20 1027 30.33 856 25.28 4.2 39.5 75 0.2 32.3
06:25 1027 30.33 856 25.28 4.2 39.5 75 0.1 32.1
06:30 1027 30.33 856 25.28 4.1 39.3 75 0.1 32.2
06:35 1027 30.33 856 25.28 4.4 39.9 73 0 32
06:40 1027 30.33 856 25.28 4.7 40.5 72 0.2 32.3
06:45 1027 30.33 856 25.28 4.7 40.4 72 0.2 32.3
06:50 1027 30.33 856 25.28 4.6 40.3 73 0.1 32.3
06:55 1027 30.33 856 25.28 4.5 40.2 73 0.1 32.2
07:00 1027 30.33 856 25.28 4.6 40.3 73 0.1 32.2
07:05 1027 30.33 857 25.31 4.8 40.6 72 0.1 32.3
07:10 1027 30.33 857 25.31 5 41 71 0.1 32.2
07:15 1027 30.33 857 25.31 5.5 41.8 69 0.2 32.4
07:20 1027 30.33 857 25.31 5.7 42.2 69 0.4 32.7
07:25 1028 30.36 857 25.31 5.8 42.4 68 0.4 32.7
07:30 1028 30.36 857 25.31 5.9 42.7 68 0.4 32.7
07:35 1028 30.36 857 25.31 6.3 43.3 67 0.5 33
07:40 1028 30.36 857 25.31 6.8 44.2 65 0.6 33.1
07:45 1028 30.36 857 25.31 7.3 45.2 64 0.9 33.7
07:50 1028 30.36 857 25.31 7.7 45.9 61 0.6 33.1
07:55 1028 30.36 857 25.31 7.9 46.1 61 0.8 33.5
08:00 1028 30.36 857 25.31 8.1 46.6 62 1.2 34.1
08:05 1028 30.36 857 25.31 8 46.4 61 0.9 33.6
08:10 1028 30.36 857 25.31 8.3 47 60 1.1 33.9
08:15 1028 30.36 857 25.31 8.9 48 58 1 33.8
08:20 1028 30.36 857 25.31 9.7 49.4 56 1.3 34.3
08:25 1028 30.36 857 25.31 9.7 49.5 58 1.8 35.2
08:30 1028 30.36 857 25.31 9.9 49.8 56 1.5 34.8
08:35 1028 30.36 857 25.31 9.7 49.4 56 1.4 34.5
08:40 1028 30.36 857 25.31 10 50 55 1.4 34.6
08:45 1028 30.36 857 25.31 10.5 50.9 54 1.6 34.8
08:50 1028 30.36 857 25.31 10.1 50.1 55 1.5 34.7
08:55 1028 30.36 857 25.31 10 50.1 56 1.8 35.3
09:00 1028 30.36 857 25.31 9.7 49.5 56 1.4 34.6
09:05 1028 30.36 857 25.31 10.5 50.9 53 1.3 34.3
09:10 1028 30.36 857 25.31 10.8 51.4 52 1.4 34.5
09:15 1028 30.36 857 25.31 11.7 53.1 49 1.3 34.4
09:20 1028 30.36 857 25.31 11.3 52.3 53 2.1 35.8
09:25 1028 30.36 857 25.31 11.3 52.4 50 1.3 34.3
09:30 1028 30.36 857 25.31 11.8 53.2 50 1.8 35.2
09:35 1028 30.36 857 25.31 10.9 51.5 53 1.6 34.9
09:40 1027 30.33 857 25.31 11.5 52.6 50 1.3 34.4
09:45 1027 30.33 857 25.31 12.6 54.6 47 1.7 35
09:50 1027 30.33 857 25.31 12.7 54.9 48 2 35.6
09:55 1027 30.33 857 25.31 12.6 54.6 47 1.6 34.8
10:00 1027 30.33 857 25.31 12.6 54.6 47 1.7 35.1
10:05 1027 30.33 857 25.31 12.5 54.4 46 1.3 34.4
10:10 1027 30.33 857 25.31 13.1 55.6 44 1.3 34.3
10:15 1027 30.33 857 25.31 13.7 56.7 43 1.6 34.9
10:20 1027 30.33 857 25.31 13.7 56.6 46 2.4 36.3
10:25 1027 30.33 856 25.28 12.7 54.8 50 2.5 36.6
10:30 1027 30.33 856 25.28 12.7 54.8 47 1.8 35.3
10:35 1027 30.33 856 25.28 13 55.4 46 1.7 35
10:40 1027 30.33 856 25.28 13.8 56.8 43 1.6 34.9
10:45 1027 30.33 856 25.28 14.2 57.6 43 1.9 35.4
10:50 1027 30.33 856 25.28 13.4 56.1 47 2.2 36
10:55 1027 30.33 856 25.28 13.2 55.7 48 2.4 36.3
11:00 1027 30.33 856 25.28 12.6 54.6 47 1.5 34.7
11:05 1027 30.33 856 25.28 13.3 55.9 44 1.4 34.6
11:10 1027 30.33 856 25.28 13.9 57 42 1.2 34.2
11:15 1027 30.33 856 25.28 14 57.2 45 2.4 36.3
11:20 1027 30.33 856 25.28 13.7 56.7 43 1.5 34.7
11:25 1027 30.33 856 25.28 13.7 56.7 45 2 35.5
11:30 1027 30.33 856 25.28 14.1 57.3 45 2.3 36.2
11:35 1027 30.33 856 25.28 14 57.2 44 2.1 35.8
11:40 1027 30.33 856 25.28 14.8 58.7 42 2 35.6
11:45 1027 30.33 856 25.28 14.8 58.7 43 2.3 36.2
11:50 1027 30.33 856 25.28 15.5 59.9 39 1.9 35.3
11:55 1027 30.33 856 25.28 15.9 60.6 39 2 35.7
12:00 1027 30.33 856 25.28 16 60.8 39 2.2 36
12:05 1027 30.33 856 25.28 15.6 60.1 41 2.4 36.3
12:10 1027 30.33 856 25.28 15.9 60.7 39 2 35.6
12:15 1027 30.33 856 25.28 16.4 61.4 37 1.8 35.2
12:20 1027 30.33 856 25.28 16.6 61.9 38 2.3 36.2
12:25 1027 30.33 856 25.28 16.4 61.5 39 2.4 36.3
12:30 1026 30.3 856 25.28 16.6 61.8 38 2.3 36.1
12:35 1026 30.3 856 25.28 16.8 62.2 36 1.8 35.2
12:40 1026 30.3 856 25.28 17.2 63 36 2.2 35.9
12:45 1026 30.3 856 25.28 17.3 63.1 36 2.3 36.1
12:50 1026 30.3 856 25.28 17.2 63 35 1.9 35.5
12:55 1026 30.3 856 25.28 17.7 63.9 34 1.8 35.2
13:00 1026 30.3 856 25.28 17.8 64.1 35 2.5 36.5
13:05 1026 30.3 856 25.28 17.6 63.6 36 2.2 36
13:10 1026 30.3 855 25.25 18 64.5 33 1.6 34.9
13:15 1026 30.3 855 25.25 18.2 64.8 33 1.9 35.5
13:20 1026 30.3 855 25.25 18.1 64.6 33 1.5 34.8
13:25 1026 30.3 855 25.25 18.5 65.3 32 1.8 35.2
13:30 1026 30.3 855 25.25 18.5 65.2 32 1.7 35
13:35 1026 30.3 855 25.25 17.9 64.1 35 2.1 35.8
13:40 1026 30.3 855 25.25 17.7 63.8 33 1.5 34.6
13:45 1026 30.3 855 25.25 18.7 65.7 31 1.6 34.8
13:50 1026 30.3 855 25.25 18.5 65.3 34 2.3 36.2
13:55 1026 30.3 855 25.25 18.8 65.9 32 1.9 35.4
14:00 1026 30.3 855 25.25 19.1 66.3 32 2.1 35.8
14:05 1026 30.3 855 25.25 19.1 66.3 31 1.7 35
14:10 1026 30.3 855 25.25 19.3 66.8 30 1.6 34.9
14:15 1026 30.3 855 25.25 19.6 67.3 30 1.6 34.9
14:20 1026 30.3 855 25.25 19.3 66.7 29 1 33.8
14:25 1026 30.3 855 25.25 19.2 66.6 29 0.7 33.3
14:30 1026 30.3 855 25.25 18.9 65.9 31 1.5 34.6
14:35 1026 30.3 855 25.25 19 66.3 29 0.7 33.2
14:40 1026 30.3 855 25.25 18.6 65.5 30 0.8 33.4
14:45 1026 30.3 855 25.25 19.2 66.5 29 0.7 33.2
14:50 1026 30.3 855 25.25 19.2 66.5 29 0.9 33.7
14:55 1026 30.3 855 25.25 19.2 66.5 29 0.8 33.4
15:00 1026 30.3 855 25.25 19.7 67.4 29 1.1 33.9
15:05 1026 30.3 855 25.25 19.8 67.6 28 0.9 33.6
15:10 1026 30.3 855 25.25 19.7 67.5 28 0.9 33.5
15:15 1026 30.3 855 25.25 19.5 67.2 28 0.9 33.6
15:20 1026 30.3 855 25.25 19.8 67.6 27 0.5 33
15:25 1026 30.3 855 25.25 19.9 67.8 28 0.9 33.7
15:30 1026 30.3 855 25.25 19.7 67.5 26 0 32.1
15:35 1026 30.3 855 25.25 19.9 67.8 27 0.3 32.5
15:40 1026 30.3 855 25.25 19.8 67.7 26 0.1 32.1
15:45 1026 30.3 855 25.25 19.9 67.7 26 0.2 32.4
15:50 1026 30.3 855 25.25 19.9 67.9 27 0.3 32.5
15:55 1026 30.3 855 25.25 19.9 67.8 26 0.1 32.2
16:00 1025 30.27 855 25.25 19.8 67.7 26 0.1 32.2
16:05 1025 30.27 855 25.25 19.7 67.5 27 0.4 32.8
16:10 1025 30.27 855 25.25 19.2 66.5 28 0.2 32.3
16:15 1025 30.27 855 25.25 19.4 66.8 28 0.8 33.4
16:20 1025 30.27 855 25.25 19.7 67.4 28 0.8 33.4
16:25 1025 30.27 855 25.25 19.6 67.3 28 0.7 33.3
16:30 1025 30.27 855 25.25 19.6 67.2 28 0.5 32.9
16:35 1025 30.27 855 25.25 19.7 67.5 27 0.2 32.4
16:40 1025 30.27 855 25.25 19.7 67.5 27 0.2 32.4
16:45 1025 30.27 855 25.25 19.4 66.8 27 -0.2 31.7
16:50 1025 30.27 855 25.25 19.1 66.4 26 -0.6 30.9
16:55 1025 30.27 855 25.25 19.1 66.4 26 -0.6 31
17:00 1025 30.27 855 25.25 19.1 66.3 26 -0.8 30.6
17:05 1025 30.27 855 25.25 19.2 66.5 26 -0.7 30.8
17:10 1025 30.27 855 25.25 18.9 66 27 -0.5 31
17:15 1025 30.27 855 25.25 18.7 65.7 27 -0.7 30.7
17:20 1025 30.27 855 25.25 18.7 65.6 27 -0.7 30.8
17:25 1025 30.27 855 25.25 18.8 65.9 27 -0.3 31.4
17:30 1025 30.27 855 25.25 18.7 65.7 26 -0.8 30.5
17:35 1025 30.27 855 25.25 18.3 64.9 28 -0.2 31.6
17:40 1025 30.27 855 25.25 17.7 63.8 29 -0.3 31.5
17:45 1025 30.27 855 25.25 17.4 63.4 29 -0.5 31.1
17:50 1025 30.27 855 25.25 17.2 62.9 30 -0.6 30.9
17:55 1025 30.27 855 25.25 17 62.6 30 -0.8 30.6
18:00 1025 30.27 855 25.25 16.8 62.3 29 -1.1 30
18:05 1025 30.27 855 25.25 16.7 62.1 30 -0.9 30.4
18:10 1025 30.27 855 25.25 16.6 61.8 30 -0.9 30.5
18:15 1025 30.27 855 25.25 16.3 61.3 32 -0.2 31.7
18:20 1025 30.27 855 25.25 15.7 60.3 39 1.9 35.4
18:25 1025 30.27 855 25.25 14.7 58.4 44 2.6 36.7
18:30 1025 30.27 855 25.25 14 57.2 47 3 37.4
18:35 1025 30.27 855 25.25 13.6 56.5 48 3 37.4
18:40 1026 30.3 855 25.25 13.1 55.5 50 3 37.3
18:45 1026 30.3 855 25.25 12.6 54.6 52 3.1 37.6
18:50 1026 30.3 855 25.25 12 53.7 56 3.5 38.3
18:55 1026 30.3 855 25.25 11.4 52.6 57 3.1 37.7
19:00 1026 30.3 855 25.25 11.2 52.1 57 2.9 37.3
19:05 1026 30.3 855 25.25 11.2 52.1 56 2.8 37.1
19:10 1026 30.3 855 25.25 11.1 51.9 55 2.5 36.4
19:15 1026 30.3 855 25.25 11.2 52.1 55 2.5 36.6
19:20 1026 30.3 855 25.25 10.9 51.7 56 2.6 36.8
19:25 1026 30.3 855 25.25 10.6 51.2 57 2.5 36.4
19:30 1026 30.3 855 25.25 10.5 51 57 2.5 36.5
19:35 1026 30.3 855 25.25 10.4 50.7 57 2.3 36.1
19:40 1026 30.3 855 25.25 10.4 50.7 57 2.2 36
19:45 1026 30.3 855 25.25 10.3 50.5 57 2.2 35.9
19:50 1026 30.3 855 25.25 10.2 50.3 57 2.1 35.9
19:55 1026 30.3 855 25.25 10.1 50.2 57 2 35.5
20:00 1026 30.3 855 25.25 10.1 50.2 57 2.1 35.8
20:05 1026 30.3 855 25.25 10 50 58 2.2 36
20:10 1026 30.3 855 25.25 9.8 49.6 59 2.1 35.9
20:15 1026 30.3 855 25.25 9.8 49.6 59 2.2 36
20:20 1026 30.3 855 25.25 9.7 49.4 59 2.1 35.7
20:25 1026 30.3 855 25.25 9.6 49.4 59 2 35.6
20:30 1026 30.3 855 25.25 9.6 49.3 59 2.1 35.7
20:35 1026 30.3 855 25.25 9.6 49.2 59 2 35.5
20:40 1026 30.3 856 25.28 9.6 49.2 58 1.8 35.3
20:45 1026 30.3 856 25.28 9.5 49.1 59 1.8 35.3
20:50 1026 30.3 855 25.25 9.5 49.1 59 1.8 35.2
20:55 1026 30.3 855 25.25 9.4 48.9 59 1.8 35.3
21:00 1026 30.3 855 25.25 9.2 48.5 60 1.8 35.3
21:05 1026 30.3 855 25.25 9 48.1 60 1.8 35.2
21:10 1026 30.3 855 25.25 8.9 48 61 1.7 35.1
21:15 1026 30.3 855 25.25 8.9 47.9 60 1.6 34.9
21:20 1026 30.3 855 25.25 8.9 48.1 60 1.6 35
21:25 1026 30.3 855 25.25 8.8 47.8 61 1.6 35
21:30 1026 30.3 855 25.25 8.8 47.8 60 1.4 34.5
21:35 1026 30.3 855 25.25 8.8 47.8 61 1.7 35
21:40 1026 30.3 856 25.28 8.7 47.7 61 1.5 34.8
21:45 1026 30.3 856 25.28 8.6 47.5 61 1.5 34.7
21:50 1026 30.3 856 25.28 8.5 47.2 61 1.5 34.7
21:55 1026 30.3 856 25.28 8.3 47 61 1.4 34.5
22:00 1026 30.3 855 25.25 8.3 47 61 1.3 34.4
22:05 1026 30.3 856 25.28 8.3 46.9 61 1.3 34.4
22:10 1026 30.3 855 25.25 8.3 47 60 1 33.8
22:15 1026 30.3 855 25.25 8.5 47.4 59 1 33.9
22:20 1026 30.3 855 25.25 8.7 47.6 58 0.9 33.6
22:25 1026 30.3 855 25.25 8.8 47.8 58 1 33.7
22:30 1026 30.3 855 25.25 8.9 48 57 0.9 33.7
22:35 1026 30.3 856 25.28 8.9 48 57 0.9 33.7
22:40 1026 30.3 856 25.28 8.6 47.6 58 1 33.7
22:45 1026 30.3 855 25.25 8.5 47.3 58 0.8 33.4
22:50 1026 30.3 855 25.25 8.7 47.6 56 0.5 32.8
22:55 1026 30.3 855 25.25 8.9 47.9 57 0.8 33.4
23:00 1026 30.3 856 25.28 8.6 47.4 58 0.7 33.3
23:05 1026 30.3 856 25.28 8.6 47.4 58 0.8 33.4
23:10 1026 30.3 856 25.28 8.3 47 59 0.7 33.3
23:15 1026 30.3 856 25.28 8.3 46.9 59 0.8 33.4
23:20 1026 30.3 856 25.28 8.2 46.8 59 0.7 33.2
23:25 1026 30.3 856 25.28 8 46.5 60 0.7 33.3
23:30 1026 30.3 856 25.28 8 46.3 59 0.5 32.8
23:35 1026 30.3 856 25.28 8 46.5 59 0.5 32.9
23:40 1026 30.3 856 25.28 8.1 46.6 58 0.5 32.8
23:45 1026 30.3 856 25.28 8.3 46.9 57 0.3 32.6
23:50 1026 30.3 856 25.28 8.2 46.7 58 0.4 32.6
23:55 1026 30.3 856 25.28 7.9 46.3 59 0.4 32.7
24:00 1026 30.3 856 25.28 7.8 46.1 59 0.3 32.5